sensor_id;sensor_type;location;lat;lon;timestamp;temperature;humidity
3005;DHT22;1512;51.486;6.610;2023-06-04T00:00:06;14.20;99.90
3005;DHT22;1512;51.486;6.610;2023-06-04T00:04:15;14.30;99.90
3005;DHT22;1512;51.486;6.610;2023-06-04T00:08:24;14.20;99.90
3005;DHT22;1512;51.486;6.610;2023-06-04T00:12:33;14.20;99.90
3005;DHT22;1512;51.486;6.610;2023-06-04T00:16:42;14.10;99.90
3005;DHT22;1512;51.486;6.610;2023-06-04T00:20:51;14.10;99.90
3005;DHT22;1512;51.486;6.610;2023-06-04T00:24:59;14.10;99.90
3005;DHT22;1512;51.486;6.610;2023-06-04T00:29:08;14.00;99.90
3005;DHT22;1512;51.486;6.610;2023-06-04T00:33:17;14.00;99.90
3005;DHT22;1512;51.486;6.610;2023-06-04T00:37:29;14.00;99.90
3005;DHT22;1512;51.486;6.610;2023-06-04T00:41:38;13.90;99.90
3005;DHT22;1512;51.486;6.610;2023-06-04T00:45:46;13.90;99.90
3005;DHT22;1512;51.486;6.610;2023-06-04T00:49:57;13.90;99.90
3005;DHT22;1512;51.486;6.610;2023-06-04T00:54:11;13.90;99.90
3005;DHT22;1512;51.486;6.610;2023-06-04T00:58:22;14.00;99.90
3005;DHT22;1512;51.486;6.610;2023-06-04T01:02:33;14.00;99.90
3005;DHT22;1512;51.486;6.610;2023-06-04T01:06:45;14.00;99.90
3005;DHT22;1512;51.486;6.610;2023-06-04T01:10:55;14.00;99.90
3005;DHT22;1512;51.486;6.610;2023-06-04T01:15:04;14.00;99.90
3005;DHT22;1512;51.486;6.610;2023-06-04T01:23:52;13.90;99.90
3005;DHT22;1512;51.486;6.610;2023-06-04T01:28:09;14.00;99.90
3005;DHT22;1512;51.486;6.610;2023-06-04T01:32:23;13.90;99.90
3005;DHT22;1512;51.486;6.610;2023-06-04T01:36:32;13.90;99.90
3005;DHT22;1512;51.486;6.610;2023-06-04T01:40:42;13.90;99.90
3005;DHT22;1512;51.486;6.610;2023-06-04T01:44:51;13.80;99.90
3005;DHT22;1512;51.486;6.610;2023-06-04T01:49:00;13.80;99.90
3005;DHT22;1512;51.486;6.610;2023-06-04T01:53:09;13.70;99.90
3005;DHT22;1512;51.486;6.610;2023-06-04T01:57:19;13.70;99.90
3005;DHT22;1512;51.486;6.610;2023-06-04T02:01:29;13.60;99.90
3005;DHT22;1512;51.486;6.610;2023-06-04T02:05:38;13.50;99.90
3005;DHT22;1512;51.486;6.610;2023-06-04T02:09:48;13.50;99.90
3005;DHT22;1512;51.486;6.610;2023-06-04T02:13:57;13.50;99.90
3005;DHT22;1512;51.486;6.610;2023-06-04T02:18:16;13.40;99.90
3005;DHT22;1512;51.486;6.610;2023-06-04T02:22:26;13.20;99.90
3005;DHT22;1512;51.486;6.610;2023-06-04T02:26:34;13.20;99.90
3005;DHT22;1512;51.486;6.610;2023-06-04T02:30:44;13.10;99.90
3005;DHT22;1512;51.486;6.610;2023-06-04T02:34:54;13.00;99.90
3005;DHT22;1512;51.486;6.610;2023-06-04T02:39:03;12.80;99.90
3005;DHT22;1512;51.486;6.610;2023-06-04T02:43:12;12.80;99.90
3005;DHT22;1512;51.486;6.610;2023-06-04T02:47:20;12.80;99.90
3005;DHT22;1512;51.486;6.610;2023-06-04T02:51:29;12.70;99.90
3005;DHT22;1512;51.486;6.610;2023-06-04T02:55:38;12.70;99.90
3005;DHT22;1512;51.486;6.610;2023-06-04T02:59:49;12.70;99.90
3005;DHT22;1512;51.486;6.610;2023-06-04T03:03:59;12.50;99.90
3005;DHT22;1512;51.486;6.610;2023-06-04T03:08:10;12.50;99.90
3005;DHT22;1512;51.486;6.610;2023-06-04T03:12:19;12.60;99.90
3005;DHT22;1512;51.486;6.610;2023-06-04T03:16:28;12.50;99.90
3005;DHT22;1512;51.486;6.610;2023-06-04T03:20:37;12.40;99.90
3005;DHT22;1512;51.486;6.610;2023-06-04T03:24:46;12.40;99.90
3005;DHT22;1512;51.486;6.610;2023-06-04T03:28:55;12.50;99.90
3005;DHT22;1512;51.486;6.610;2023-06-04T03:33:03;12.50;99.90
3005;DHT22;1512;51.486;6.610;2023-06-04T03:37:12;12.60;99.90
3005;DHT22;1512;51.486;6.610;2023-06-04T03:41:21;12.60;99.90
3005;DHT22;1512;51.486;6.610;2023-06-04T03:45:30;12.70;99.90
3005;DHT22;1512;51.486;6.610;2023-06-04T03:49:38;12.60;99.90
3005;DHT22;1512;51.486;6.610;2023-06-04T03:53:48;12.60;99.90
3005;DHT22;1512;51.486;6.610;2023-06-04T03:57:56;12.50;99.90
3005;DHT22;1512;51.486;6.610;2023-06-04T04:02:05;12.50;99.90
3005;DHT22;1512;51.486;6.610;2023-06-04T04:06:14;12.50;99.90
3005;DHT22;1512;51.486;6.610;2023-06-04T04:10:23;12.60;99.90
3005;DHT22;1512;51.486;6.610;2023-06-04T04:14:31;12.60;99.90
3005;DHT22;1512;51.486;6.610;2023-06-04T04:18:42;12.50;99.90
3005;DHT22;1512;51.486;6.610;2023-06-04T04:22:51;12.50;99.90
3005;DHT22;1512;51.486;6.610;2023-06-04T04:27:00;12.50;99.90
3005;DHT22;1512;51.486;6.610;2023-06-04T04:31:11;12.60;99.90
3005;DHT22;1512;51.486;6.610;2023-06-04T04:35:20;12.60;99.90
3005;DHT22;1512;51.486;6.610;2023-06-04T04:39:30;12.60;99.90
3005;DHT22;1512;51.486;6.610;2023-06-04T04:43:39;12.60;99.90
3005;DHT22;1512;51.486;6.610;2023-06-04T04:47:48;12.60;99.90
3005;DHT22;1512;51.486;6.610;2023-06-04T04:51:58;12.70;99.90
3005;DHT22;1512;51.486;6.610;2023-06-04T04:56:07;12.80;99.90
3005;DHT22;1512;51.486;6.610;2023-06-04T05:00:16;12.80;99.90
3005;DHT22;1512;51.486;6.610;2023-06-04T05:04:25;12.80;99.90
3005;DHT22;1512;51.486;6.610;2023-06-04T05:08:34;12.80;99.90
3005;DHT22;1512;51.486;6.610;2023-06-04T05:12:50;12.80;99.90
3005;DHT22;1512;51.486;6.610;2023-06-04T05:16:59;12.80;99.90
3005;DHT22;1512;51.486;6.610;2023-06-04T05:21:08;12.80;99.90
3005;DHT22;1512;51.486;6.610;2023-06-04T05:25:19;12.90;99.90
3005;DHT22;1512;51.486;6.610;2023-06-04T05:29:28;12.90;99.90
3005;DHT22;1512;51.486;6.610;2023-06-04T05:33:36;12.90;99.90
3005;DHT22;1512;51.486;6.610;2023-06-04T05:37:45;13.00;99.90
3005;DHT22;1512;51.486;6.610;2023-06-04T05:41:56;13.10;99.90
3005;DHT22;1512;51.486;6.610;2023-06-04T05:46:04;13.10;99.90
3005;DHT22;1512;51.486;6.610;2023-06-04T05:50:15;13.20;99.90
3005;DHT22;1512;51.486;6.610;2023-06-04T05:54:24;13.40;99.90
3005;DHT22;1512;51.486;6.610;2023-06-04T05:58:33;13.50;99.90
3005;DHT22;1512;51.486;6.610;2023-06-04T06:02:45;13.60;99.90
3005;DHT22;1512;51.486;6.610;2023-06-04T06:06:55;13.60;99.90
3005;DHT22;1512;51.486;6.610;2023-06-04T06:11:04;13.70;99.90
3005;DHT22;1512;51.486;6.610;2023-06-04T06:15:14;13.90;99.90
3005;DHT22;1512;51.486;6.610;2023-06-04T06:19:23;14.00;99.90
3005;DHT22;1512;51.486;6.610;2023-06-04T06:23:32;14.00;99.90
3005;DHT22;1512;51.486;6.610;2023-06-04T06:27:41;14.10;99.90
3005;DHT22;1512;51.486;6.610;2023-06-04T06:31:50;14.20;99.90
3005;DHT22;1512;51.486;6.610;2023-06-04T06:35:59;14.30;99.90
3005;DHT22;1512;51.486;6.610;2023-06-04T06:40:08;14.40;99.90
3005;DHT22;1512;51.486;6.610;2023-06-04T06:44:17;14.60;99.90
3005;DHT22;1512;51.486;6.610;2023-06-04T06:48:26;14.70;99.90
3005;DHT22;1512;51.486;6.610;2023-06-04T06:52:34;14.80;99.90
3005;DHT22;1512;51.486;6.610;2023-06-04T06:56:43;14.90;99.90
3005;DHT22;1512;51.486;6.610;2023-06-04T07:00:52;15.00;99.90
3005;DHT22;1512;51.486;6.610;2023-06-04T07:05:03;15.20;99.90
3005;DHT22;1512;51.486;6.610;2023-06-04T07:09:12;15.30;99.90
3005;DHT22;1512;51.486;6.610;2023-06-04T07:13:21;15.50;99.90
3005;DHT22;1512;51.486;6.610;2023-06-04T07:17:30;15.50;99.90
3005;DHT22;1512;51.486;6.610;2023-06-04T07:21:39;15.80;99.90
3005;DHT22;1512;51.486;6.610;2023-06-04T07:25:48;15.90;99.90
3005;DHT22;1512;51.486;6.610;2023-06-04T07:29:56;16.10;99.90
3005;DHT22;1512;51.486;6.610;2023-06-04T07:34:05;16.20;99.90
3005;DHT22;1512;51.486;6.610;2023-06-04T07:38:14;16.40;99.90
3005;DHT22;1512;51.486;6.610;2023-06-04T07:42:22;16.60;99.90
3005;DHT22;1512;51.486;6.610;2023-06-04T07:46:31;16.70;99.90
3005;DHT22;1512;51.486;6.610;2023-06-04T07:50:40;16.90;99.90
3005;DHT22;1512;51.486;6.610;2023-06-04T07:54:49;17.10;99.90
3005;DHT22;1512;51.486;6.610;2023-06-04T07:58:57;17.30;99.90
3005;DHT22;1512;51.486;6.610;2023-06-04T08:03:07;17.50;99.90
3005;DHT22;1512;51.486;6.610;2023-06-04T08:07:16;17.70;99.90
3005;DHT22;1512;51.486;6.610;2023-06-04T08:11:25;17.90;99.90
3005;DHT22;1512;51.486;6.610;2023-06-04T08:15:33;18.10;99.90
3005;DHT22;1512;51.486;6.610;2023-06-04T08:19:42;18.20;99.90
3005;DHT22;1512;51.486;6.610;2023-06-04T08:23:51;18.40;99.90
3005;DHT22;1512;51.486;6.610;2023-06-04T08:28:00;18.60;99.90
3005;DHT22;1512;51.486;6.610;2023-06-04T08:32:08;18.70;99.90
3005;DHT22;1512;51.486;6.610;2023-06-04T08:36:18;19.00;99.90
3005;DHT22;1512;51.486;6.610;2023-06-04T08:40:27;19.10;99.90
3005;DHT22;1512;51.486;6.610;2023-06-04T08:44:36;19.30;99.90
3005;DHT22;1512;51.486;6.610;2023-06-04T08:48:46;19.60;99.90
3005;DHT22;1512;51.486;6.610;2023-06-04T08:52:56;19.90;99.90
3005;DHT22;1512;51.486;6.610;2023-06-04T08:57:05;20.10;99.90
3005;DHT22;1512;51.486;6.610;2023-06-04T09:01:14;20.10;99.90
3005;DHT22;1512;51.486;6.610;2023-06-04T09:05:23;20.30;99.90
3005;DHT22;1512;51.486;6.610;2023-06-04T09:09:37;20.40;99.90
3005;DHT22;1512;51.486;6.610;2023-06-04T09:13:46;20.60;99.90
3005;DHT22;1512;51.486;6.610;2023-06-04T09:17:55;20.80;99.90
3005;DHT22;1512;51.486;6.610;2023-06-04T09:22:04;21.00;99.90
3005;DHT22;1512;51.486;6.610;2023-06-04T09:26:14;21.20;99.90
3005;DHT22;1512;51.486;6.610;2023-06-04T09:30:23;21.40;99.90
3005;DHT22;1512;51.486;6.610;2023-06-04T09:34:32;21.50;99.90
3005;DHT22;1512;51.486;6.610;2023-06-04T09:38:41;21.60;99.90
3005;DHT22;1512;51.486;6.610;2023-06-04T09:42:51;21.80;99.90
3005;DHT22;1512;51.486;6.610;2023-06-04T09:47:03;21.90;99.90
3005;DHT22;1512;51.486;6.610;2023-06-04T09:51:14;22.00;99.90
3005;DHT22;1512;51.486;6.610;2023-06-04T09:55:27;22.00;99.90
3005;DHT22;1512;51.486;6.610;2023-06-04T09:59:38;22.20;99.90
3005;DHT22;1512;51.486;6.610;2023-06-04T10:03:50;22.30;99.90
3005;DHT22;1512;51.486;6.610;2023-06-04T10:08:02;22.40;99.90
3005;DHT22;1512;51.486;6.610;2023-06-04T10:12:17;22.40;99.90
3005;DHT22;1512;51.486;6.610;2023-06-04T10:16:27;22.50;99.90
3005;DHT22;1512;51.486;6.610;2023-06-04T10:20:41;22.70;99.90
3005;DHT22;1512;51.486;6.610;2023-06-04T10:24:49;22.80;99.90
3005;DHT22;1512;51.486;6.610;2023-06-04T10:28:58;23.00;99.90
3005;DHT22;1512;51.486;6.610;2023-06-04T10:33:08;23.00;99.90
3005;DHT22;1512;51.486;6.610;2023-06-04T10:37:21;23.10;99.90
3005;DHT22;1512;51.486;6.610;2023-06-04T10:41:31;23.20;99.90
3005;DHT22;1512;51.486;6.610;2023-06-04T10:45:40;23.20;99.90
3005;DHT22;1512;51.486;6.610;2023-06-04T10:49:53;23.30;99.90
3005;DHT22;1512;51.486;6.610;2023-06-04T10:54:02;23.40;99.90
3005;DHT22;1512;51.486;6.610;2023-06-04T10:58:11;23.50;99.90
3005;DHT22;1512;51.486;6.610;2023-06-04T11:02:20;23.60;99.90
3005;DHT22;1512;51.486;6.610;2023-06-04T11:06:30;23.80;99.90
3005;DHT22;1512;51.486;6.610;2023-06-04T11:10:46;23.90;99.90
3005;DHT22;1512;51.486;6.610;2023-06-04T11:14:56;24.00;99.90
3005;DHT22;1512;51.486;6.610;2023-06-04T11:19:06;24.10;99.90
3005;DHT22;1512;51.486;6.610;2023-06-04T11:23:15;24.10;99.90
3005;DHT22;1512;51.486;6.610;2023-06-04T11:27:24;24.30;99.90
3005;DHT22;1512;51.486;6.610;2023-06-04T11:31:42;24.40;99.90
3005;DHT22;1512;51.486;6.610;2023-06-04T11:35:51;24.50;99.90
3005;DHT22;1512;51.486;6.610;2023-06-04T11:40:00;24.50;99.90
3005;DHT22;1512;51.486;6.610;2023-06-04T11:44:09;24.60;99.90
3005;DHT22;1512;51.486;6.610;2023-06-04T11:48:20;24.60;99.90
3005;DHT22;1512;51.486;6.610;2023-06-04T11:52:28;24.80;99.90
3005;DHT22;1512;51.486;6.610;2023-06-04T11:56:37;24.70;99.90
3005;DHT22;1512;51.486;6.610;2023-06-04T12:00:46;24.80;99.90
3005;DHT22;1512;51.486;6.610;2023-06-04T12:04:55;24.90;99.90
3005;DHT22;1512;51.486;6.610;2023-06-04T12:09:04;24.90;99.90
3005;DHT22;1512;51.486;6.610;2023-06-04T12:13:13;24.90;99.90
3005;DHT22;1512;51.486;6.610;2023-06-04T12:17:22;24.90;99.90
3005;DHT22;1512;51.486;6.610;2023-06-04T12:21:31;25.10;99.90
3005;DHT22;1512;51.486;6.610;2023-06-04T12:25:40;25.20;99.90
3005;DHT22;1512;51.486;6.610;2023-06-04T12:30:00;25.40;99.90
3005;DHT22;1512;51.486;6.610;2023-06-04T12:34:09;25.50;99.90
3005;DHT22;1512;51.486;6.610;2023-06-04T12:38:19;25.50;99.90
3005;DHT22;1512;51.486;6.610;2023-06-04T12:42:28;25.40;99.90
3005;DHT22;1512;51.486;6.610;2023-06-04T12:46:37;25.50;99.90
3005;DHT22;1512;51.486;6.610;2023-06-04T12:50:45;25.60;99.90
3005;DHT22;1512;51.486;6.610;2023-06-04T12:54:54;25.80;99.90
3005;DHT22;1512;51.486;6.610;2023-06-04T12:59:03;25.80;99.90
3005;DHT22;1512;51.486;6.610;2023-06-04T13:03:12;25.60;99.90
3005;DHT22;1512;51.486;6.610;2023-06-04T13:07:20;25.50;99.90
3005;DHT22;1512;51.486;6.610;2023-06-04T13:16:33;25.90;99.90
3005;DHT22;1512;51.486;6.610;2023-06-04T13:20:42;26.30;99.90
3005;DHT22;1512;51.486;6.610;2023-06-04T13:24:51;26.40;99.90
3005;DHT22;1512;51.486;6.610;2023-06-04T13:29:00;26.60;99.90
3005;DHT22;1512;51.486;6.610;2023-06-04T13:33:09;26.50;99.90
3005;DHT22;1512;51.486;6.610;2023-06-04T13:37:20;26.60;99.90
3005;DHT22;1512;51.486;6.610;2023-06-04T13:41:29;26.80;99.90
3005;DHT22;1512;51.486;6.610;2023-06-04T13:45:38;27.00;99.90
3005;DHT22;1512;51.486;6.610;2023-06-04T13:49:48;26.80;99.90
3005;DHT22;1512;51.486;6.610;2023-06-04T13:53:56;26.70;99.90
3005;DHT22;1512;51.486;6.610;2023-06-04T13:58:06;26.90;99.90
3005;DHT22;1512;51.486;6.610;2023-06-04T14:02:15;27.00;99.90
3005;DHT22;1512;51.486;6.610;2023-06-04T14:06:24;26.90;99.90
3005;DHT22;1512;51.486;6.610;2023-06-04T14:10:33;26.90;99.90
3005;DHT22;1512;51.486;6.610;2023-06-04T14:14:43;27.00;99.90
3005;DHT22;1512;51.486;6.610;2023-06-04T14:18:52;27.10;99.90
3005;DHT22;1512;51.486;6.610;2023-06-04T14:23:01;27.00;99.90
3005;DHT22;1512;51.486;6.610;2023-06-04T14:27:09;27.00;99.90
3005;DHT22;1512;51.486;6.610;2023-06-04T14:31:18;27.10;99.90
3005;DHT22;1512;51.486;6.610;2023-06-04T14:35:27;27.20;99.90
3005;DHT22;1512;51.486;6.610;2023-06-04T14:39:35;27.30;99.90
3005;DHT22;1512;51.486;6.610;2023-06-04T14:43:44;27.30;99.90
3005;DHT22;1512;51.486;6.610;2023-06-04T14:52:09;27.30;99.90
3005;DHT22;1512;51.486;6.610;2023-06-04T14:56:18;27.10;99.90
3005;DHT22;1512;51.486;6.610;2023-06-04T15:00:26;27.00;99.90
3005;DHT22;1512;51.486;6.610;2023-06-04T15:04:35;27.10;99.90
3005;DHT22;1512;51.486;6.610;2023-06-04T15:08:44;27.10;99.90
3005;DHT22;1512;51.486;6.610;2023-06-04T15:12:53;27.10;99.90
3005;DHT22;1512;51.486;6.610;2023-06-04T15:17:02;26.90;99.90
3005;DHT22;1512;51.486;6.610;2023-06-04T15:21:11;27.00;99.90
3005;DHT22;1512;51.486;6.610;2023-06-04T15:25:20;27.00;99.90
3005;DHT22;1512;51.486;6.610;2023-06-04T15:29:28;26.90;99.90
3005;DHT22;1512;51.486;6.610;2023-06-04T15:33:38;26.70;99.90
3005;DHT22;1512;51.486;6.610;2023-06-04T15:37:47;26.90;99.90
3005;DHT22;1512;51.486;6.610;2023-06-04T15:41:56;26.90;99.90
3005;DHT22;1512;51.486;6.610;2023-06-04T15:46:06;26.90;99.90
3005;DHT22;1512;51.486;6.610;2023-06-04T15:50:15;26.80;99.90
3005;DHT22;1512;51.486;6.610;2023-06-04T15:54:23;26.60;99.90
3005;DHT22;1512;51.486;6.610;2023-06-04T15:58:34;26.40;99.90
3005;DHT22;1512;51.486;6.610;2023-06-04T16:02:43;26.20;99.90
3005;DHT22;1512;51.486;6.610;2023-06-04T16:06:51;26.20;99.90
3005;DHT22;1512;51.486;6.610;2023-06-04T16:11:00;26.20;99.90
3005;DHT22;1512;51.486;6.610;2023-06-04T16:15:09;26.20;99.90
3005;DHT22;1512;51.486;6.610;2023-06-04T16:19:18;26.20;99.90
3005;DHT22;1512;51.486;6.610;2023-06-04T16:23:27;26.00;99.90
3005;DHT22;1512;51.486;6.610;2023-06-04T16:27:36;25.90;99.90
3005;DHT22;1512;51.486;6.610;2023-06-04T16:31:44;25.90;99.90
3005;DHT22;1512;51.486;6.610;2023-06-04T16:35:53;25.70;99.90
3005;DHT22;1512;51.486;6.610;2023-06-04T16:40:03;25.70;99.90
3005;DHT22;1512;51.486;6.610;2023-06-04T16:44:12;25.60;99.90
3005;DHT22;1512;51.486;6.610;2023-06-04T16:48:21;25.50;99.90
3005;DHT22;1512;51.486;6.610;2023-06-04T16:52:29;25.30;99.90
3005;DHT22;1512;51.486;6.610;2023-06-04T16:56:38;25.30;99.90
3005;DHT22;1512;51.486;6.610;2023-06-04T17:00:48;25.30;99.90
3005;DHT22;1512;51.486;6.610;2023-06-04T17:04:57;25.20;99.90
3005;DHT22;1512;51.486;6.610;2023-06-04T17:09:08;25.10;99.90
3005;DHT22;1512;51.486;6.610;2023-06-04T17:13:17;25.00;99.90
3005;DHT22;1512;51.486;6.610;2023-06-04T17:17:26;25.00;99.90
3005;DHT22;1512;51.486;6.610;2023-06-04T17:21:34;24.90;99.90
3005;DHT22;1512;51.486;6.610;2023-06-04T17:25:43;24.80;99.90
3005;DHT22;1512;51.486;6.610;2023-06-04T17:29:52;24.60;99.90
3005;DHT22;1512;51.486;6.610;2023-06-04T17:34:01;24.60;99.90
3005;DHT22;1512;51.486;6.610;2023-06-04T17:38:10;24.50;99.90
3005;DHT22;1512;51.486;6.610;2023-06-04T17:42:18;24.50;99.90
3005;DHT22;1512;51.486;6.610;2023-06-04T17:46:29;24.50;99.90
3005;DHT22;1512;51.486;6.610;2023-06-04T17:50:37;24.20;99.90
3005;DHT22;1512;51.486;6.610;2023-06-04T17:54:46;24.10;99.90
3005;DHT22;1512;51.486;6.610;2023-06-04T17:58:56;24.10;99.90
3005;DHT22;1512;51.486;6.610;2023-06-04T18:03:05;23.90;99.90
3005;DHT22;1512;51.486;6.610;2023-06-04T18:07:15;23.70;99.90
3005;DHT22;1512;51.486;6.610;2023-06-04T18:11:23;23.60;99.90
3005;DHT22;1512;51.486;6.610;2023-06-04T18:15:33;23.50;99.90
3005;DHT22;1512;51.486;6.610;2023-06-04T18:19:42;23.30;99.90
3005;DHT22;1512;51.486;6.610;2023-06-04T18:23:51;23.20;99.90
3005;DHT22;1512;51.486;6.610;2023-06-04T18:28:00;23.10;99.90
3005;DHT22;1512;51.486;6.610;2023-06-04T18:32:09;23.00;99.90
3005;DHT22;1512;51.486;6.610;2023-06-04T18:36:19;22.80;99.90
3005;DHT22;1512;51.486;6.610;2023-06-04T18:40:27;22.60;99.90
3005;DHT22;1512;51.486;6.610;2023-06-04T18:44:37;22.50;99.90
3005;DHT22;1512;51.486;6.610;2023-06-04T18:48:45;22.40;99.90
3005;DHT22;1512;51.486;6.610;2023-06-04T18:52:56;22.20;99.90
3005;DHT22;1512;51.486;6.610;2023-06-04T18:57:05;22.20;99.90
3005;DHT22;1512;51.486;6.610;2023-06-04T19:01:15;22.10;99.90
3005;DHT22;1512;51.486;6.610;2023-06-04T19:05:26;22.00;99.90
3005;DHT22;1512;51.486;6.610;2023-06-04T19:09:35;21.90;99.90
3005;DHT22;1512;51.486;6.610;2023-06-04T19:13:44;21.90;99.90
3005;DHT22;1512;51.486;6.610;2023-06-04T19:17:52;21.80;99.90
3005;DHT22;1512;51.486;6.610;2023-06-04T19:22:02;21.70;99.90
3005;DHT22;1512;51.486;6.610;2023-06-04T19:26:11;21.60;99.90
3005;DHT22;1512;51.486;6.610;2023-06-04T19:30:21;21.50;99.90
3005;DHT22;1512;51.486;6.610;2023-06-04T19:34:32;21.50;99.90
3005;DHT22;1512;51.486;6.610;2023-06-04T19:38:41;21.40;99.90
3005;DHT22;1512;51.486;6.610;2023-06-04T19:42:52;21.30;99.90
3005;DHT22;1512;51.486;6.610;2023-06-04T19:47:01;21.20;99.90
3005;DHT22;1512;51.486;6.610;2023-06-04T19:51:11;21.10;99.90
3005;DHT22;1512;51.486;6.610;2023-06-04T19:55:21;21.00;99.90
3005;DHT22;1512;51.486;6.610;2023-06-04T19:59:30;20.90;99.90
3005;DHT22;1512;51.486;6.610;2023-06-04T20:03:39;20.80;99.90
3005;DHT22;1512;51.486;6.610;2023-06-04T20:07:50;20.70;99.90
3005;DHT22;1512;51.486;6.610;2023-06-04T20:11:59;20.60;99.90
3005;DHT22;1512;51.486;6.610;2023-06-04T20:16:08;20.60;99.90
3005;DHT22;1512;51.486;6.610;2023-06-04T20:20:18;20.40;99.90
3005;DHT22;1512;51.486;6.610;2023-06-04T20:24:26;20.30;99.90
3005;DHT22;1512;51.486;6.610;2023-06-04T20:28:35;20.20;99.90
3005;DHT22;1512;51.486;6.610;2023-06-04T20:32:44;20.10;99.90
3005;DHT22;1512;51.486;6.610;2023-06-04T20:36:53;20.00;99.90
3005;DHT22;1512;51.486;6.610;2023-06-04T20:41:03;19.90;99.90
3005;DHT22;1512;51.486;6.610;2023-06-04T20:45:12;19.80;99.90
3005;DHT22;1512;51.486;6.610;2023-06-04T20:49:21;19.70;99.90
3005;DHT22;1512;51.486;6.610;2023-06-04T20:53:30;19.60;99.90
3005;DHT22;1512;51.486;6.610;2023-06-04T20:57:38;19.50;99.90
3005;DHT22;1512;51.486;6.610;2023-06-04T21:01:47;19.40;99.90
3005;DHT22;1512;51.486;6.610;2023-06-04T21:05:56;19.10;99.90
3005;DHT22;1512;51.486;6.610;2023-06-04T21:10:06;18.90;99.90
3005;DHT22;1512;51.486;6.610;2023-06-04T21:14:14;18.80;99.90
3005;DHT22;1512;51.486;6.610;2023-06-04T21:18:23;18.80;99.90
3005;DHT22;1512;51.486;6.610;2023-06-04T21:22:32;18.60;99.90
3005;DHT22;1512;51.486;6.610;2023-06-04T21:26:40;18.60;99.90
3005;DHT22;1512;51.486;6.610;2023-06-04T21:30:49;18.50;99.90
3005;DHT22;1512;51.486;6.610;2023-06-04T21:34:58;18.40;99.90
3005;DHT22;1512;51.486;6.610;2023-06-04T21:39:06;18.30;99.90
3005;DHT22;1512;51.486;6.610;2023-06-04T21:43:15;18.30;99.90
3005;DHT22;1512;51.486;6.610;2023-06-04T21:47:25;18.20;99.90
3005;DHT22;1512;51.486;6.610;2023-06-04T21:51:34;18.10;99.90
3005;DHT22;1512;51.486;6.610;2023-06-04T21:55:45;18.10;99.90
3005;DHT22;1512;51.486;6.610;2023-06-04T21:59:53;18.00;99.90
3005;DHT22;1512;51.486;6.610;2023-06-04T22:04:02;18.00;99.90
3005;DHT22;1512;51.486;6.610;2023-06-04T22:08:11;17.80;99.90
3005;DHT22;1512;51.486;6.610;2023-06-04T22:12:20;17.70;99.90
3005;DHT22;1512;51.486;6.610;2023-06-04T22:20:59;17.70;99.90
3005;DHT22;1512;51.486;6.610;2023-06-04T22:25:09;17.70;99.90
3005;DHT22;1512;51.486;6.610;2023-06-04T22:29:18;17.60;99.90
3005;DHT22;1512;51.486;6.610;2023-06-04T22:33:27;17.60;99.90
3005;DHT22;1512;51.486;6.610;2023-06-04T22:37:37;17.60;99.90
3005;DHT22;1512;51.486;6.610;2023-06-04T22:41:45;17.50;99.90
3005;DHT22;1512;51.486;6.610;2023-06-04T22:45:54;17.40;99.90
3005;DHT22;1512;51.486;6.610;2023-06-04T22:50:03;17.40;99.90
3005;DHT22;1512;51.486;6.610;2023-06-04T22:54:13;17.40;99.90
3005;DHT22;1512;51.486;6.610;2023-06-04T22:58:21;17.30;99.90
3005;DHT22;1512;51.486;6.610;2023-06-04T23:02:30;17.30;99.90
3005;DHT22;1512;51.486;6.610;2023-06-04T23:06:40;17.20;99.90
3005;DHT22;1512;51.486;6.610;2023-06-04T23:10:49;17.20;99.90
3005;DHT22;1512;51.486;6.610;2023-06-04T23:14:58;17.10;99.90
3005;DHT22;1512;51.486;6.610;2023-06-04T23:19:08;17.10;99.90
3005;DHT22;1512;51.486;6.610;2023-06-04T23:23:18;17.00;99.90
3005;DHT22;1512;51.486;6.610;2023-06-04T23:27:27;17.00;99.90
3005;DHT22;1512;51.486;6.610;2023-06-04T23:31:35;16.90;99.90
3005;DHT22;1512;51.486;6.610;2023-06-04T23:35:44;16.90;99.90
3005;DHT22;1512;51.486;6.610;2023-06-04T23:39:54;16.80;99.90
3005;DHT22;1512;51.486;6.610;2023-06-04T23:44:03;16.70;99.90
3005;DHT22;1512;51.486;6.610;2023-06-04T23:48:11;16.60;99.90
3005;DHT22;1512;51.486;6.610;2023-06-04T23:52:20;16.60;99.90
3005;DHT22;1512;51.486;6.610;2023-06-04T23:56:29;16.50;99.90
